Lidgerwood, ND (58053)

4:18 AM CDT on July 30, 2016 (GMT -0500)
Mantador | | Change Station

Elev 1056 ft 46.15 °N, 97.03 °W | Updated 4 minutes ago

Mostly Cloudy
Mostly Cloudy
66.5 °F
Feels Like 66.5 °F
N
2.0
Wind Variable Wind from SSE
Gusts 5.0 mph

Today
High -- | Low -- °F
--% Chance of Precip.
Yesterday
High -- | Low -- °F
Precip. -- in
Pressure 29.99 in
Visibility 10.0 miles
Clouds Mostly Cloudy 8000 ft
Dew Point 60 °F
Humidity 80%
Rainfall 0.00 in
Snow Depth Not available.
6:09 AM 9:00 PM
Waning Crescent, 15% visible
METAR KGWR 300915Z AUTO 19006KT 10SM BKN080 17/16 A2999 RMK AO1
Pressure 29.99 in
Visibility 10.0 miles
Clouds Mostly Cloudy 8000 ft
Dew Point 60 °F
Humidity 80%
Rainfall 0.00 in
Snow Depth Not available.
6:09 AM 9:00 PM
Waning Crescent, 15% visible
METAR KGWR 300915Z AUTO 19006KT 10SM BKN080 17/16 A2999 RMK AO1

10-Day Weather Forecast

Almanac

Astronomy

Jul. 30, 2016 Rise Set
Actual Time
Civil Twilight
Nautical Twilight
Astronomical Twilight
Moon
Length of Visible Light
Length of Day
Tomorrow will be .
, % of the Moon is Illuminated

Today's Extremes

State Highs State Lows

Community

WunderPhotos

Upload Photos

1,928,528 photos uploaded!

WunderBlog® & News

Nearby

Air Quality

  Air Quality AQ Index Pollutant
Not available.

Snow Depth

Station Depth Elevation

Earthquake Activity

City Distance Mag. Time & Date
Minimum magnitude displayed is 2.5.

Coastal Water Temperatures

Place Temperature

Stations

Nearby Weather Stations

Station Location Temp. Windchill Dew Point Humidity Wind Precip. Elev Updated Type
                   

Watches & Warnings

There are currently no watches in effect.